Weather at Binuang Airstrip

Public forecast

Using degrees Celsius for public forecast. Weather courtesy of forecast.io.

Closest aviation weather report (METAR) to Binuang Airstrip

Closest report is Brunei International Airport, 92.2 nm (170.8 km) NW.

2024/04/24 12:00 (retrieved 14 minutes ago)

WBSB 241200Z 17006KT 9999 TS SCT014 FEW015CB BKN140 29/27 Q1008 NOSIG

Closest aviation forecast (TAF) to Binuang Airstrip

Closest forecast is Brunei International Airport, 92.2 nm (170.8 km) NW.

2024/04/24 12:12 (retrieved 2 minutes ago)

TAF WBSB 241050Z 2412/2518 04005KT 9999 SCT014 FEW015CB TEMPO 2412/2416 3000 TSRA SCT012 FEW015CB BECMG 2416/2418 20004KT FEW003 FEW015CB